sensor_id;sensor_type;location;lat;lon;timestamp;temperature;humidity
13854;DHT22;6997;51.782;8.824;2022-12-07T00:01:41;3.00;99.90
13854;DHT22;6997;51.782;8.824;2022-12-07T00:04:09;3.10;99.90
13854;DHT22;6997;51.782;8.824;2022-12-07T00:06:41;3.10;99.90
13854;DHT22;6997;51.782;8.824;2022-12-07T00:11:35;3.20;99.90
13854;DHT22;6997;51.782;8.824;2022-12-07T00:14:05;3.20;99.90
13854;DHT22;6997;51.782;8.824;2022-12-07T00:16:32;3.20;99.90
13854;DHT22;6997;51.782;8.824;2022-12-07T00:21:27;3.20;99.90
13854;DHT22;6997;51.782;8.824;2022-12-07T00:23:54;3.30;99.90
13854;DHT22;6997;51.782;8.824;2022-12-07T00:28:52;3.40;99.90
13854;DHT22;6997;51.782;8.824;2022-12-07T00:38:42;3.30;99.90
13854;DHT22;6997;51.782;8.824;2022-12-07T00:43:39;3.50;99.90
13854;DHT22;6997;51.782;8.824;2022-12-07T00:46:05;3.40;99.90
13854;DHT22;6997;51.782;8.824;2022-12-07T00:50:58;3.40;99.90
13854;DHT22;6997;51.782;8.824;2022-12-07T00:55:49;3.50;99.90
13854;DHT22;6997;51.782;8.824;2022-12-07T01:00:42;3.40;99.90
13854;DHT22;6997;51.782;8.824;2022-12-07T01:15:21;3.40;99.90
13854;DHT22;6997;51.782;8.824;2022-12-07T01:20:13;3.40;99.90
13854;DHT22;6997;51.782;8.824;2022-12-07T01:22:42;3.50;99.90
13854;DHT22;6997;51.782;8.824;2022-12-07T01:30:03;3.50;99.90
13854;DHT22;6997;51.782;8.824;2022-12-07T01:32:29;3.50;99.90
13854;DHT22;6997;51.782;8.824;2022-12-07T01:34:54;3.50;99.90
13854;DHT22;6997;51.782;8.824;2022-12-07T01:37:20;3.50;99.90
13854;DHT22;6997;51.782;8.824;2022-12-07T01:39:49;3.60;99.90
13854;DHT22;6997;51.782;8.824;2022-12-07T01:47:25;3.60;99.90
13854;DHT22;6997;51.782;8.824;2022-12-07T01:49:51;3.50;99.90
13854;DHT22;6997;51.782;8.824;2022-12-07T01:52:27;3.60;99.90
13854;DHT22;6997;51.782;8.824;2022-12-07T01:57:23;3.70;99.90
13854;DHT22;6997;51.782;8.824;2022-12-07T01:59:51;3.70;99.90
13854;DHT22;6997;51.782;8.824;2022-12-07T02:09:37;3.50;99.90
13854;DHT22;6997;51.782;8.824;2022-12-07T02:12:03;3.80;99.90
13854;DHT22;6997;51.782;8.824;2022-12-07T02:14:29;3.70;99.90
13854;DHT22;6997;51.782;8.824;2022-12-07T02:28:05;3.80;99.90
13854;DHT22;6997;51.782;8.824;2022-12-07T02:33:16;3.80;99.90
13854;DHT22;6997;51.782;8.824;2022-12-07T02:43:46;3.90;99.90
13854;DHT22;6997;51.782;8.824;2022-12-07T02:46:19;3.90;99.90
13854;DHT22;6997;51.782;8.824;2022-12-07T02:53:43;3.90;99.90
13854;DHT22;6997;51.782;8.824;2022-12-07T03:12:44;4.00;99.90
13854;DHT22;6997;51.782;8.824;2022-12-07T03:15:19;4.00;99.90
13854;DHT22;6997;51.782;8.824;2022-12-07T03:20:18;3.90;99.90
13854;DHT22;6997;51.782;8.824;2022-12-07T03:22:47;4.00;99.90
13854;DHT22;6997;51.782;8.824;2022-12-07T03:25:15;4.00;99.90
13854;DHT22;6997;51.782;8.824;2022-12-07T03:30:17;4.00;99.90
13854;DHT22;6997;51.782;8.824;2022-12-07T03:33:03;4.00;99.90
13854;DHT22;6997;51.782;8.824;2022-12-07T03:48:08;3.80;99.90
13854;DHT22;6997;51.782;8.824;2022-12-07T03:55:51;4.00;99.90
13854;DHT22;6997;51.782;8.824;2022-12-07T04:03:11;5.40;99.90
13854;DHT22;6997;51.782;8.824;2022-12-07T04:05:37;3.90;99.90
13854;DHT22;6997;51.782;8.824;2022-12-07T04:08:04;3.80;99.90
13854;DHT22;6997;51.782;8.824;2022-12-07T04:10:30;3.80;99.90
13854;DHT22;6997;51.782;8.824;2022-12-07T04:12:55;3.90;99.90
13854;DHT22;6997;51.782;8.824;2022-12-07T04:17:47;3.70;99.90
13854;DHT22;6997;51.782;8.824;2022-12-07T04:20:13;3.90;99.90
13854;DHT22;6997;51.782;8.824;2022-12-07T04:29:56;3.70;99.90
13854;DHT22;6997;51.782;8.824;2022-12-07T04:34:49;3.80;99.90
13854;DHT22;6997;51.782;8.824;2022-12-07T04:39:40;3.70;99.90
13854;DHT22;6997;51.782;8.824;2022-12-07T04:42:06;3.90;99.90
13854;DHT22;6997;51.782;8.824;2022-12-07T04:46:57;3.70;99.90
13854;DHT22;6997;51.782;8.824;2022-12-07T04:49:24;3.70;99.90
13854;DHT22;6997;51.782;8.824;2022-12-07T05:01:35;3.60;99.90
13854;DHT22;6997;51.782;8.824;2022-12-07T05:04:01;3.70;99.90
13854;DHT22;6997;51.782;8.824;2022-12-07T05:14:06;3.60;99.90
13854;DHT22;6997;51.782;8.824;2022-12-07T05:16:32;3.60;99.90
13854;DHT22;6997;51.782;8.824;2022-12-07T05:18:58;3.50;99.90
13854;DHT22;6997;51.782;8.824;2022-12-07T05:21:24;3.50;99.90
13854;DHT22;6997;51.782;8.824;2022-12-07T05:26:15;3.50;99.90
13854;DHT22;6997;51.782;8.824;2022-12-07T05:28:41;3.50;99.90
13854;DHT22;6997;51.782;8.824;2022-12-07T05:33:32;3.30;99.90
13854;DHT22;6997;51.782;8.824;2022-12-07T05:38:24;3.40;99.90
13854;DHT22;6997;51.782;8.824;2022-12-07T05:43:16;3.30;99.90
13854;DHT22;6997;51.782;8.824;2022-12-07T05:53:00;3.50;99.90
13854;DHT22;6997;51.782;8.824;2022-12-07T06:05:28;3.20;99.90
13854;DHT22;6997;51.782;8.824;2022-12-07T06:07:53;3.30;99.90
13854;DHT22;6997;51.782;8.824;2022-12-07T06:10:19;3.40;99.90
13854;DHT22;6997;51.782;8.824;2022-12-07T06:15:11;3.30;99.90
13854;DHT22;6997;51.782;8.824;2022-12-07T06:34:41;3.20;99.90
13854;DHT22;6997;51.782;8.824;2022-12-07T06:37:07;3.10;99.90
13854;DHT22;6997;51.782;8.824;2022-12-07T06:41:59;3.20;99.90
13854;DHT22;6997;51.782;8.824;2022-12-07T06:44:25;3.30;99.90
13854;DHT22;6997;51.782;8.824;2022-12-07T06:51:43;3.20;99.90
13854;DHT22;6997;51.782;8.824;2022-12-07T06:54:10;3.30;99.90
13854;DHT22;6997;51.782;8.824;2022-12-07T06:56:37;3.30;99.90
13854;DHT22;6997;51.782;8.824;2022-12-07T06:59:04;3.30;99.90
13854;DHT22;6997;51.782;8.824;2022-12-07T07:01:34;3.30;99.90
13854;DHT22;6997;51.782;8.824;2022-12-07T07:04:01;3.30;99.90
13854;DHT22;6997;51.782;8.824;2022-12-07T07:06:26;3.20;99.90
13854;DHT22;6997;51.782;8.824;2022-12-07T07:08:52;3.30;99.90
13854;DHT22;6997;51.782;8.824;2022-12-07T07:11:18;3.60;99.90
13854;DHT22;6997;51.782;8.824;2022-12-07T07:18:37;3.00;99.90
13854;DHT22;6997;51.782;8.824;2022-12-07T07:30:49;3.10;99.90
13854;DHT22;6997;51.782;8.824;2022-12-07T07:38:10;3.10;99.90
13854;DHT22;6997;51.782;8.824;2022-12-07T07:40:38;3.10;99.90
13854;DHT22;6997;51.782;8.824;2022-12-07T08:02:22;3.10;99.90
13854;DHT22;6997;51.782;8.824;2022-12-07T08:07:15;3.10;99.90
13854;DHT22;6997;51.782;8.824;2022-12-07T08:12:07;3.00;99.90
13854;DHT22;6997;51.782;8.824;2022-12-07T08:16:59;3.00;99.90
13854;DHT22;6997;51.782;8.824;2022-12-07T08:21:52;3.00;99.90
13854;DHT22;6997;51.782;8.824;2022-12-07T08:24:18;3.00;99.90
13854;DHT22;6997;51.782;8.824;2022-12-07T08:29:11;2.90;99.90
13854;DHT22;6997;51.782;8.824;2022-12-07T08:48:51;3.00;99.90
13854;DHT22;6997;51.782;8.824;2022-12-07T08:51:19;3.00;99.90
13854;DHT22;6997;51.782;8.824;2022-12-07T08:53:46;3.00;99.90
13854;DHT22;6997;51.782;8.824;2022-12-07T08:58:38;3.00;99.90
13854;DHT22;6997;51.782;8.824;2022-12-07T09:01:05;3.00;99.90
13854;DHT22;6997;51.782;8.824;2022-12-07T09:03:31;3.10;99.90
13854;DHT22;6997;51.782;8.824;2022-12-07T09:10:52;3.00;99.90
13854;DHT22;6997;51.782;8.824;2022-12-07T09:15:44;3.10;99.90
13854;DHT22;6997;51.782;8.824;2022-12-07T09:25:27;3.10;99.90
13854;DHT22;6997;51.782;8.824;2022-12-07T09:32:49;3.10;99.90
13854;DHT22;6997;51.782;8.824;2022-12-07T09:35:15;3.10;99.90
13854;DHT22;6997;51.782;8.824;2022-12-07T09:40:09;3.20;99.90
13854;DHT22;6997;51.782;8.824;2022-12-07T09:45:05;3.20;99.90
13854;DHT22;6997;51.782;8.824;2022-12-07T09:50:12;3.20;99.90
13854;DHT22;6997;51.782;8.824;2022-12-07T09:52:38;3.20;99.90
13854;DHT22;6997;51.782;8.824;2022-12-07T10:02:52;3.30;99.90
13854;DHT22;6997;51.782;8.824;2022-12-07T10:05:30;3.30;99.90
13854;DHT22;6997;51.782;8.824;2022-12-07T10:17:51;3.50;99.90
13854;DHT22;6997;51.782;8.824;2022-12-07T10:30:24;3.50;99.90
13854;DHT22;6997;51.782;8.824;2022-12-07T10:35:25;3.50;99.90
13854;DHT22;6997;51.782;8.824;2022-12-07T10:40:33;3.50;99.90
13854;DHT22;6997;51.782;8.824;2022-12-07T10:54:12;3.70;99.90
13854;DHT22;6997;51.782;8.824;2022-12-07T11:06:54;4.00;99.90
13854;DHT22;6997;51.782;8.824;2022-12-07T11:25:18;4.20;99.90
13854;DHT22;6997;51.782;8.824;2022-12-07T11:30:27;4.20;99.90
13854;DHT22;6997;51.782;8.824;2022-12-07T11:38:12;4.20;99.90
13854;DHT22;6997;51.782;8.824;2022-12-07T11:53:54;4.10;99.90
13854;DHT22;6997;51.782;8.824;2022-12-07T12:11:30;4.20;99.90
13854;DHT22;6997;51.782;8.824;2022-12-07T12:22:33;4.30;99.90
13854;DHT22;6997;51.782;8.824;2022-12-07T12:30:05;4.50;99.90
13854;DHT22;6997;51.782;8.824;2022-12-07T12:35:35;4.50;99.90
13854;DHT22;6997;51.782;8.824;2022-12-07T12:51:39;4.50;99.90
13854;DHT22;6997;51.782;8.824;2022-12-07T12:54:19;4.50;99.90
13854;DHT22;6997;51.782;8.824;2022-12-07T13:44:18;4.30;99.90
13854;DHT22;6997;51.782;8.824;2022-12-07T13:47:09;4.30;99.90
13854;DHT22;6997;51.782;8.824;2022-12-07T13:54:56;4.40;99.90
13854;DHT22;6997;51.782;8.824;2022-12-07T14:02:30;4.30;99.90
13854;DHT22;6997;51.782;8.824;2022-12-07T14:05:14;4.30;99.90
13854;DHT22;6997;51.782;8.824;2022-12-07T14:15:31;4.40;99.90
13854;DHT22;6997;51.782;8.824;2022-12-07T14:20:37;4.40;99.90
13854;DHT22;6997;51.782;8.824;2022-12-07T14:26:03;4.40;99.90
13854;DHT22;6997;51.782;8.824;2022-12-07T15:20:51;4.00;99.90
13854;DHT22;6997;51.782;8.824;2022-12-07T15:25:45;4.00;99.90
13854;DHT22;6997;51.782;8.824;2022-12-07T15:33:06;4.00;99.90
13854;DHT22;6997;51.782;8.824;2022-12-07T15:40:25;4.00;99.90
13854;DHT22;6997;51.782;8.824;2022-12-07T15:42:52;4.00;99.90
13854;DHT22;6997;51.782;8.824;2022-12-07T15:45:18;3.90;99.90
13854;DHT22;6997;51.782;8.824;2022-12-07T15:55:06;3.80;99.90
13854;DHT22;6997;51.782;8.824;2022-12-07T16:00:03;3.80;99.90
13854;DHT22;6997;51.782;8.824;2022-12-07T16:04:55;3.80;99.90
13854;DHT22;6997;51.782;8.824;2022-12-07T16:07:20;3.60;99.90
13854;DHT22;6997;51.782;8.824;2022-12-07T16:14:39;3.60;99.90
13854;DHT22;6997;51.782;8.824;2022-12-07T16:17:07;3.70;99.90
13854;DHT22;6997;51.782;8.824;2022-12-07T16:24:25;3.70;99.90
13854;DHT22;6997;51.782;8.824;2022-12-07T16:36:36;3.60;99.90
13854;DHT22;6997;51.782;8.824;2022-12-07T16:41:28;3.60;99.90
13854;DHT22;6997;51.782;8.824;2022-12-07T16:56:12;3.50;99.90
13854;DHT22;6997;51.782;8.824;2022-12-07T17:03:41;3.50;99.90
13854;DHT22;6997;51.782;8.824;2022-12-07T17:08:40;3.40;99.90
13854;DHT22;6997;51.782;8.824;2022-12-07T17:38:34;3.20;99.90
13854;DHT22;6997;51.782;8.824;2022-12-07T17:41:00;3.20;99.90
13854;DHT22;6997;51.782;8.824;2022-12-07T17:53:35;3.20;99.90
13854;DHT22;6997;51.782;8.824;2022-12-07T17:58:27;3.10;99.90
13854;DHT22;6997;51.782;8.824;2022-12-07T18:05:44;3.30;99.90
13854;DHT22;6997;51.782;8.824;2022-12-07T18:08:11;3.30;99.90
13854;DHT22;6997;51.782;8.824;2022-12-07T18:13:03;3.20;99.90
13854;DHT22;6997;51.782;8.824;2022-12-07T18:15:47;3.30;99.90
13854;DHT22;6997;51.782;8.824;2022-12-07T18:20:45;3.30;99.90
13854;DHT22;6997;51.782;8.824;2022-12-07T18:23:11;3.20;99.90
13854;DHT22;6997;51.782;8.824;2022-12-07T18:28:02;3.30;99.90
13854;DHT22;6997;51.782;8.824;2022-12-07T18:30:28;3.30;99.90
13854;DHT22;6997;51.782;8.824;2022-12-07T18:37:46;3.10;99.90
13854;DHT22;6997;51.782;8.824;2022-12-07T18:45:04;3.20;99.90
13854;DHT22;6997;51.782;8.824;2022-12-07T18:47:29;3.10;99.90
13854;DHT22;6997;51.782;8.824;2022-12-07T18:49:55;3.20;99.90
13854;DHT22;6997;51.782;8.824;2022-12-07T18:57:12;3.30;99.90
13854;DHT22;6997;51.782;8.824;2022-12-07T18:59:38;3.20;99.90
13854;DHT22;6997;51.782;8.824;2022-12-07T19:02:13;3.10;99.90
13854;DHT22;6997;51.782;8.824;2022-12-07T19:04:39;3.40;99.90
13854;DHT22;6997;51.782;8.824;2022-12-07T19:09:31;3.20;99.90
13854;DHT22;6997;51.782;8.824;2022-12-07T19:11:56;3.20;99.90
13854;DHT22;6997;51.782;8.824;2022-12-07T19:16:56;3.20;99.90
13854;DHT22;6997;51.782;8.824;2022-12-07T19:19:27;3.20;99.90
13854;DHT22;6997;51.782;8.824;2022-12-07T19:21:53;3.10;99.90
13854;DHT22;6997;51.782;8.824;2022-12-07T19:26:44;3.10;99.90
13854;DHT22;6997;51.782;8.824;2022-12-07T19:34:13;3.20;99.90
13854;DHT22;6997;51.782;8.824;2022-12-07T19:39:09;3.20;99.90
13854;DHT22;6997;51.782;8.824;2022-12-07T19:44:22;3.20;99.90
13854;DHT22;6997;51.782;8.824;2022-12-07T19:46:51;3.30;99.90
13854;DHT22;6997;51.782;8.824;2022-12-07T19:49:18;3.20;99.90
13854;DHT22;6997;51.782;8.824;2022-12-07T19:51:48;3.10;99.90
13854;DHT22;6997;51.782;8.824;2022-12-07T19:54:17;3.20;99.90
13854;DHT22;6997;51.782;8.824;2022-12-07T19:56:43;3.20;99.90
13854;DHT22;6997;51.782;8.824;2022-12-07T19:59:10;3.20;99.90
13854;DHT22;6997;51.782;8.824;2022-12-07T20:01:36;3.20;99.90
13854;DHT22;6997;51.782;8.824;2022-12-07T20:08:57;3.10;99.90
13854;DHT22;6997;51.782;8.824;2022-12-07T20:11:22;3.20;99.90
13854;DHT22;6997;51.782;8.824;2022-12-07T20:16:38;3.20;99.90
13854;DHT22;6997;51.782;8.824;2022-12-07T20:21:30;3.20;99.90
13854;DHT22;6997;51.782;8.824;2022-12-07T20:23:59;3.20;99.90
13854;DHT22;6997;51.782;8.824;2022-12-07T20:28:50;3.10;99.90
13854;DHT22;6997;51.782;8.824;2022-12-07T20:31:16;3.20;99.90
13854;DHT22;6997;51.782;8.824;2022-12-07T20:36:16;3.20;99.90
13854;DHT22;6997;51.782;8.824;2022-12-07T20:38:43;3.20;99.90
13854;DHT22;6997;51.782;8.824;2022-12-07T20:41:11;3.10;99.90
13854;DHT22;6997;51.782;8.824;2022-12-07T20:46:22;3.20;99.90
13854;DHT22;6997;51.782;8.824;2022-12-07T20:51:13;3.10;99.90
13854;DHT22;6997;51.782;8.824;2022-12-07T20:56:05;3.10;99.90
13854;DHT22;6997;51.782;8.824;2022-12-07T21:03:28;3.10;99.90
13854;DHT22;6997;51.782;8.824;2022-12-07T21:10:46;3.20;99.90
13854;DHT22;6997;51.782;8.824;2022-12-07T21:15:38;3.30;99.90
13854;DHT22;6997;51.782;8.824;2022-12-07T21:18:04;3.20;99.90
13854;DHT22;6997;51.782;8.824;2022-12-07T21:20:29;3.00;99.90
13854;DHT22;6997;51.782;8.824;2022-12-07T21:22:57;3.10;99.90
13854;DHT22;6997;51.782;8.824;2022-12-07T21:27:49;3.20;99.90
13854;DHT22;6997;51.782;8.824;2022-12-07T21:32:40;3.30;99.90
13854;DHT22;6997;51.782;8.824;2022-12-07T21:35:06;3.10;99.90
13854;DHT22;6997;51.782;8.824;2022-12-07T21:37:32;3.20;99.90
13854;DHT22;6997;51.782;8.824;2022-12-07T21:39:57;3.20;99.90
13854;DHT22;6997;51.782;8.824;2022-12-07T21:44:49;3.10;99.90
13854;DHT22;6997;51.782;8.824;2022-12-07T21:49:40;3.00;99.90
13854;DHT22;6997;51.782;8.824;2022-12-07T21:52:06;3.10;99.90
13854;DHT22;6997;51.782;8.824;2022-12-07T21:56:58;3.10;99.90
13854;DHT22;6997;51.782;8.824;2022-12-07T21:59:23;3.10;99.90
13854;DHT22;6997;51.782;8.824;2022-12-07T22:04:24;3.00;99.90
13854;DHT22;6997;51.782;8.824;2022-12-07T22:06:50;3.10;99.90
13854;DHT22;6997;51.782;8.824;2022-12-07T22:09:17;3.00;99.90
13854;DHT22;6997;51.782;8.824;2022-12-07T22:16:58;3.10;99.90
13854;DHT22;6997;51.782;8.824;2022-12-07T22:21:50;3.10;99.90
13854;DHT22;6997;51.782;8.824;2022-12-07T22:26:42;2.90;99.90
13854;DHT22;6997;51.782;8.824;2022-12-07T22:29:08;3.00;99.90
13854;DHT22;6997;51.782;8.824;2022-12-07T22:31:34;3.00;99.90
13854;DHT22;6997;51.782;8.824;2022-12-07T22:36:26;2.90;99.90
13854;DHT22;6997;51.782;8.824;2022-12-07T22:41:30;2.90;99.90
13854;DHT22;6997;51.782;8.824;2022-12-07T22:46:23;3.00;99.90
13854;DHT22;6997;51.782;8.824;2022-12-07T22:51:26;3.00;99.90
13854;DHT22;6997;51.782;8.824;2022-12-07T22:56:19;3.00;99.90
13854;DHT22;6997;51.782;8.824;2022-12-07T22:58:47;3.00;99.90
13854;DHT22;6997;51.782;8.824;2022-12-07T23:01:14;3.00;99.90
13854;DHT22;6997;51.782;8.824;2022-12-07T23:03:40;3.00;99.90
13854;DHT22;6997;51.782;8.824;2022-12-07T23:23:22;3.00;99.90
13854;DHT22;6997;51.782;8.824;2022-12-07T23:28:14;3.10;99.90
13854;DHT22;6997;51.782;8.824;2022-12-07T23:33:05;3.10;99.90
13854;DHT22;6997;51.782;8.824;2022-12-07T23:37:57;3.00;99.90
13854;DHT22;6997;51.782;8.824;2022-12-07T23:57:25;3.40;99.90
